Terminal Aerodrome Forecast
Issued by NWS Albany, NY

Home | Current Version | Previous Version | Text Only | Print | Product List | Glossary On
Versions: 1 2 3 4 5 6 7 8 9 10 11 12 13 14 15 16 17 18 19 20 21
000
FTUS41 KALY 281736
TAFPOU
TAF
KPOU 281736Z 2818/2918 24010G18KT P6SM VCSH SCT050
      TEMPO 2818/2819 VRB10G25KT 3SM -SHRA BR BKN025 OVC050
     FM282100 27008KT P6SM SCT050
     FM290100 VRB03KT P6SM SKC
     FM290800 00000KT 3SM BR SCT003
     FM291400 VRB05KT P6SM SCT035=

USA.gov is the U.S. government's official web portal to all federal, state and local government web resources and services.